Terminal Aerodrome Forecast
Issued by NWS

Home | Current Version | Previous Version | Text Only | Print | Product List | Glossary On
Versions: 1 2 3 4 5 6 7 8 9 10 11 12 13 14 15 16 17 18 19
000
FTUS42 KTBW 220000 AAB
TAFLAL
TAF AMD
KLAL 220028Z 2200/2224 VRB03KT P6SM VCSH SCT030 BKN250
      TEMPO 2200/2201 3SM SHRA BKN030
     FM220200 VRB03KT P6SM SCT035 BKN250
     FM221500 19004KT P6SM VCSH SCT030 BKN040
     FM221800 21005KT P6SM VCTS SCT025CB BKN035=

USA.gov is the U.S. government's official web portal to all federal, state and local government web resources and services.